createdAt,value
2022-11-07T00:00:23.245Z,18.92
2022-11-07T00:03:25.299Z,17.15
2022-11-07T00:06:27.311Z,18.92
2022-11-07T00:09:29.334Z,17.33
2022-11-07T00:12:31.402Z,18.67
2022-11-07T00:15:33.396Z,22.15
2022-11-07T00:18:36.279Z,21.02
2022-11-07T00:21:39.727Z,17.67
2022-11-07T00:24:42.073Z,19.57
2022-11-07T00:27:44.141Z,17.50
2022-11-07T00:30:46.155Z,21.27
2022-11-07T00:33:48.614Z,17.75
2022-11-07T00:36:50.927Z,20.15
2022-11-07T00:39:52.956Z,25.57
2022-11-07T00:42:54.871Z,15.67
2022-11-07T00:45:57.867Z,20.77
2022-11-07T00:48:59.892Z,18.77
2022-11-07T00:52:01.950Z,17.85
2022-11-07T00:55:04.673Z,20.50
2022-11-07T00:58:11.218Z,19.40
2022-11-07T01:01:20.221Z,19.02
2022-11-07T01:04:41.115Z,20.25
2022-11-07T01:07:43.092Z,17.87
2022-11-07T01:10:45.094Z,17.50
2022-11-07T01:13:47.042Z,18.40
2022-11-07T01:16:50.157Z,19.25
2022-11-07T01:19:52.118Z,18.42
2022-11-07T01:22:54.135Z,20.20
2022-11-07T01:25:56.153Z,18.33
2022-11-07T01:28:58.251Z,18.80
2022-11-07T01:32:00.260Z,19.42
2022-11-07T01:35:02.242Z,19.73
2022-11-07T01:38:04.765Z,18.87
2022-11-07T01:41:21.330Z,17.17
2022-11-07T01:44:23.213Z,18.33
2022-11-07T01:47:31.571Z,23.02
2022-11-07T01:50:33.570Z,20.83
2022-11-07T01:53:36.463Z,23.33
2022-11-07T01:56:42.096Z,17.63
2022-11-07T01:59:44.217Z,26.40
2022-11-07T02:02:49.541Z,20.42
2022-11-07T02:06:00.217Z,18.52
2022-11-07T02:09:02.312Z,18.75
2022-11-07T02:12:04.592Z,18.53
2022-11-07T02:15:09.444Z,21.47
2022-11-07T02:18:11.622Z,20.20
2022-11-07T02:21:19.296Z,21.87
2022-11-07T02:24:34.236Z,21.40
2022-11-07T02:27:37.608Z,20.30
2022-11-07T02:30:39.634Z,18.47
2022-11-07T02:33:42.120Z,19.95
2022-11-07T02:36:44.169Z,18.37
2022-11-07T02:39:46.354Z,21.23
2022-11-07T02:42:48.891Z,21.93
2022-11-07T02:45:51.807Z,22.43
2022-11-07T02:48:59.498Z,23.83
2022-11-07T02:52:01.856Z,23.05
2022-11-07T02:55:05.406Z,23.23
2022-11-07T02:58:07.610Z,19.90
2022-11-07T03:01:10.006Z,18.47
2022-11-07T03:04:12.015Z,21.27
2022-11-07T03:07:13.942Z,19.52
2022-11-07T03:10:17.753Z,21.25
2022-11-07T03:13:19.721Z,19.93
2022-11-07T03:16:21.694Z,21.03
2022-11-07T03:19:23.668Z,20.00
2022-11-07T03:22:25.733Z,25.05
2022-11-07T03:25:27.682Z,22.13
2022-11-07T03:28:29.835Z,18.57
2022-11-07T03:31:31.843Z,21.50
2022-11-07T03:34:33.919Z,17.35
2022-11-07T03:37:36.391Z,23.90
2022-11-07T03:40:39.093Z,17.87
2022-11-07T03:43:41.049Z,22.37
2022-11-07T03:46:43.160Z,20.70
2022-11-07T03:49:45.116Z,19.92
2022-11-07T03:52:48.076Z,22.37
2022-11-07T03:55:50.082Z,21.60
2022-11-07T03:58:52.039Z,18.93
2022-11-07T04:01:54.118Z,18.43
2022-11-07T04:04:56.156Z,17.08
2022-11-07T04:07:58.216Z,22.02
2022-11-07T04:11:00.261Z,20.35
2022-11-07T04:14:20.822Z,20.47
2022-11-07T04:17:22.935Z,19.83
2022-11-07T04:20:24.951Z,19.05
2022-11-07T04:23:26.928Z,21.27
2022-11-07T04:26:47.453Z,19.40
2022-11-07T04:29:49.438Z,20.63
2022-11-07T04:32:53.901Z,22.77
2022-11-07T04:35:55.888Z,23.35
2022-11-07T04:38:58.550Z,24.92
2022-11-07T04:42:00.495Z,20.10
2022-11-07T04:45:02.500Z,22.83
2022-11-07T04:48:05.948Z,17.40
2022-11-07T04:51:14.195Z,18.80
2022-11-07T04:54:16.588Z,18.80
2022-11-07T04:57:18.587Z,22.92
2022-11-07T05:00:21.548Z,22.07
2022-11-07T05:03:23.425Z,21.60
2022-11-07T05:06:25.704Z,21.87
2022-11-07T05:09:28.002Z,16.80
2022-11-07T05:12:29.948Z,19.80
2022-11-07T05:15:31.910Z,23.90
2022-11-07T05:18:33.942Z,21.53
2022-11-07T05:21:35.914Z,20.90
2022-11-07T05:24:38.126Z,21.35
2022-11-07T05:27:40.083Z,19.45
2022-11-07T05:30:44.088Z,26.63
2022-11-07T05:33:46.128Z,20.77
2022-11-07T05:36:48.297Z,20.62
2022-11-07T05:39:54.826Z,19.67
2022-11-07T05:43:01.705Z,17.58
2022-11-07T05:46:03.844Z,18.33
2022-11-07T05:49:06.018Z,20.10
2022-11-07T05:52:07.942Z,20.37
2022-11-07T05:55:09.911Z,24.10
2022-11-07T05:58:12.616Z,23.77
2022-11-07T06:01:14.625Z,25.43
2022-11-07T06:04:16.600Z,29.43
2022-11-07T06:07:18.572Z,24.58
2022-11-07T06:10:21.017Z,29.25
2022-11-07T06:13:23.314Z,24.42
2022-11-07T06:16:25.555Z,23.83
2022-11-07T06:19:27.561Z,25.57
2022-11-07T06:22:30.319Z,20.77
2022-11-07T06:25:33.037Z,24.33
2022-11-07T06:28:35.314Z,24.85
2022-11-07T06:31:37.386Z,25.00
2022-11-07T06:34:39.460Z,27.30
2022-11-07T06:37:41.458Z,24.17
2022-11-07T06:40:44.563Z,23.85
2022-11-07T06:43:46.637Z,21.48
2022-11-07T06:46:48.673Z,25.93
2022-11-07T06:49:50.721Z,29.60
2022-11-07T06:52:52.734Z,26.23
2022-11-07T06:55:55.727Z,31.30
2022-11-07T06:58:57.802Z,31.98
2022-11-07T07:02:00.089Z,34.53
2022-11-07T07:05:02.116Z,30.43
2022-11-07T07:08:05.937Z,34.63
2022-11-07T07:11:10.635Z,33.30
2022-11-07T07:14:12.769Z,33.22
2022-11-07T07:17:14.731Z,91.63
2022-11-07T07:20:16.850Z,30.90
2022-11-07T07:23:20.189Z,31.67
2022-11-07T07:26:22.448Z,23.45
2022-11-07T07:29:25.215Z,22.65
2022-11-07T07:32:27.240Z,25.87
2022-11-07T07:35:29.280Z,25.83
2022-11-07T07:38:31.556Z,27.62
2022-11-07T07:41:38.992Z,26.95
2022-11-07T07:44:42.048Z,27.13
2022-11-07T07:47:44.116Z,26.77
2022-11-07T07:50:52.452Z,30.13
2022-11-07T07:53:54.619Z,30.42
2022-11-07T07:56:56.594Z,28.42
2022-11-07T07:59:58.801Z,28.25
2022-11-07T08:03:11.901Z,48.43
2022-11-07T08:06:13.806Z,29.83
2022-11-07T08:09:15.755Z,31.92
2022-11-07T08:12:17.747Z,29.40
2022-11-07T08:15:20.549Z,30.80
2022-11-07T08:18:24.297Z,33.23
2022-11-07T08:21:26.297Z,32.53
2022-11-07T08:24:28.520Z,29.10
2022-11-07T08:27:30.629Z,32.92
2022-11-07T08:30:32.864Z,28.12
2022-11-07T08:33:35.515Z,29.90
2022-11-07T08:36:39.905Z,34.80
2022-11-07T08:39:41.907Z,28.67
2022-11-07T08:42:43.944Z,28.00
2022-11-07T08:45:47.820Z,29.40
2022-11-07T08:48:50.159Z,23.50
2022-11-07T08:51:52.238Z,24.60
2022-11-07T08:54:54.330Z,22.70
2022-11-07T08:58:01.169Z,20.00
2022-11-07T09:01:08.121Z,23.33
2022-11-07T09:04:10.363Z,22.77
2022-11-07T09:07:12.383Z,21.60
2022-11-07T09:10:14.670Z,19.42
2022-11-07T09:13:17.208Z,20.80
2022-11-07T09:16:20.390Z,19.20
2022-11-07T09:19:22.458Z,18.80
2022-11-07T09:22:24.547Z,19.23
2022-11-07T09:25:27.092Z,22.05
2022-11-07T09:28:29.796Z,15.73
2022-11-07T09:31:31.781Z,19.12
2022-11-07T09:34:33.747Z,18.27
2022-11-07T09:37:39.325Z,17.93
2022-11-07T09:41:00.539Z,21.20
2022-11-07T09:44:28.067Z,21.25
2022-11-07T09:47:37.432Z,19.55
2022-11-07T09:50:43.131Z,18.07
2022-11-07T09:53:51.278Z,17.03
2022-11-07T09:56:55.835Z,18.33
2022-11-07T10:00:02.232Z,20.83
2022-11-07T10:03:08.988Z,18.83
2022-11-07T10:06:25.134Z,17.50
2022-11-07T10:09:49.676Z,15.03
2022-11-07T10:13:06.730Z,15.30
2022-11-07T10:16:17.785Z,16.83
2022-11-07T10:19:43.948Z,15.27
2022-11-07T10:22:58.061Z,15.32
2022-11-07T10:26:08.181Z,17.57
2022-11-07T10:29:21.403Z,15.10
2022-11-07T10:32:29.319Z,15.43
2022-11-07T10:35:34.070Z,16.08
2022-11-07T10:38:41.438Z,15.32
2022-11-07T10:42:14.440Z,14.03
2022-11-07T10:45:17.795Z,19.05
2022-11-07T10:48:19.929Z,17.25
2022-11-07T10:51:42.607Z,15.73
2022-11-07T10:54:47.526Z,16.83
2022-11-07T10:58:12.466Z,13.93
2022-11-07T11:01:22.990Z,14.65
2022-11-07T11:04:30.495Z,13.15
2022-11-07T11:07:38.802Z,14.85
2022-11-07T11:10:42.258Z,16.65
2022-11-07T11:13:44.332Z,18.17
2022-11-07T11:16:50.016Z,16.15
2022-11-07T11:19:53.840Z,15.13
2022-11-07T11:22:55.931Z,15.18
2022-11-07T11:26:14.342Z,16.35
2022-11-07T11:29:50.527Z,16.07
2022-11-07T11:33:06.783Z,15.13
2022-11-07T11:36:19.589Z,16.10
2022-11-07T11:39:33.122Z,16.45
2022-11-07T11:42:53.995Z,15.73
2022-11-07T11:46:02.493Z,16.47
2022-11-07T11:49:36.651Z,15.20
2022-11-07T11:52:39.027Z,18.62
2022-11-07T11:55:52.174Z,15.90
2022-11-07T11:59:09.731Z,15.02
2022-11-07T12:02:27.022Z,15.60
2022-11-07T12:06:04.848Z,15.93
2022-11-07T12:09:17.168Z,14.77
2022-11-07T12:12:38.185Z,15.73
2022-11-07T12:16:17.648Z,14.07
2022-11-07T12:19:46.241Z,15.53
2022-11-07T12:23:16.453Z,16.15
2022-11-07T12:26:24.278Z,14.63
2022-11-07T12:29:48.214Z,15.07
2022-11-07T12:32:50.128Z,15.65
2022-11-07T12:36:00.619Z,16.87
2022-11-07T12:39:17.916Z,18.12
2022-11-07T12:42:34.684Z,17.73
2022-11-07T12:45:48.807Z,15.43
2022-11-07T12:49:15.512Z,16.23
2022-11-07T12:53:06.021Z,16.03
2022-11-07T12:56:20.180Z,17.62
2022-11-07T12:59:29.793Z,15.27
2022-11-07T13:02:44.175Z,15.48
2022-11-07T13:06:19.140Z,15.55
2022-11-07T13:09:26.833Z,14.77
2022-11-07T13:12:36.477Z,16.27
2022-11-07T13:16:08.961Z,14.70
2022-11-07T13:19:21.010Z,15.95
2022-11-07T13:22:32.509Z,15.10
2022-11-07T13:25:34.989Z,16.00
2022-11-07T13:28:44.449Z,16.25
2022-11-07T13:31:46.502Z,18.67
2022-11-07T13:34:58.026Z,17.58
2022-11-07T13:38:12.043Z,15.90
2022-11-07T13:41:16.026Z,15.27
2022-11-07T13:44:29.510Z,18.65
2022-11-07T13:47:39.384Z,19.25
2022-11-07T13:50:46.649Z,16.83
2022-11-07T13:53:48.566Z,14.45
2022-11-07T13:56:59.714Z,17.73
2022-11-07T14:00:14.528Z,20.40
2022-11-07T14:03:29.519Z,16.45
2022-11-07T14:06:32.552Z,20.15
2022-11-07T14:09:34.807Z,18.48
2022-11-07T14:12:40.383Z,16.00
2022-11-07T14:15:54.020Z,17.60
2022-11-07T14:19:04.513Z,18.90
2022-11-07T14:22:08.756Z,17.20
2022-11-07T14:25:35.799Z,18.20
2022-11-07T14:28:39.975Z,17.73
2022-11-07T14:31:42.219Z,19.70
2022-11-07T14:34:46.451Z,16.75
2022-11-07T14:37:48.640Z,17.73
2022-11-07T14:40:53.182Z,19.33
2022-11-07T14:44:03.878Z,17.37
2022-11-07T14:47:08.432Z,17.75
2022-11-07T14:50:16.011Z,18.10
2022-11-07T14:53:22.397Z,17.55
2022-11-07T14:56:34.658Z,18.45
2022-11-07T14:59:38.057Z,20.27
2022-11-07T15:02:40.432Z,25.30
2022-11-07T15:05:42.388Z,26.65
2022-11-07T15:08:56.862Z,24.55
2022-11-07T15:12:00.954Z,25.23
2022-11-07T15:15:17.141Z,27.50
2022-11-07T15:18:26.802Z,23.62
2022-11-07T15:21:32.943Z,25.83
2022-11-07T15:24:45.218Z,28.67
2022-11-07T15:27:47.235Z,29.73
2022-11-07T15:30:51.994Z,23.57
2022-11-07T15:33:57.332Z,28.45
2022-11-07T15:36:59.262Z,31.02
2022-11-07T15:40:13.152Z,29.23
2022-11-07T15:43:15.483Z,26.87
2022-11-07T15:46:39.335Z,29.23
2022-11-07T15:49:41.402Z,33.15
2022-11-07T15:52:44.574Z,46.92
2022-11-07T15:55:47.313Z,45.45
2022-11-07T15:58:50.683Z,39.80
2022-11-07T16:01:52.715Z,46.73
2022-11-07T16:04:54.840Z,41.22
2022-11-07T16:07:58.402Z,45.50
2022-11-07T16:11:02.678Z,37.25
2022-11-07T16:14:36.399Z,36.43
2022-11-07T16:17:27.240Z,39.40
2022-11-07T16:20:33.633Z,40.58
2022-11-07T16:23:37.360Z,43.92
2022-11-07T16:26:40.475Z,48.92
2022-11-07T16:29:44.391Z,45.50
2022-11-07T16:32:47.227Z,44.93
2022-11-07T16:35:51.933Z,55.12
2022-11-07T16:38:55.549Z,62.78
2022-11-07T16:41:58.693Z,53.63
2022-11-07T16:45:02.544Z,50.80
2022-11-07T16:48:05.962Z,50.87
2022-11-07T16:51:15.606Z,51.70
2022-11-07T16:54:18.330Z,55.28
2022-11-07T16:57:21.234Z,126.28
2022-11-07T17:00:24.977Z,81.63
2022-11-07T17:03:29.589Z,81.80
2022-11-07T17:06:35.030Z,94.13
2022-11-07T17:09:38.807Z,61.42
2022-11-07T17:12:41.844Z,76.80
2022-11-07T17:15:47.472Z,79.00
2022-11-07T17:18:51.578Z,69.90
2022-11-07T17:21:54.339Z,59.72
2022-11-07T17:24:59.301Z,58.42
2022-11-07T17:28:02.127Z,56.58
2022-11-07T17:31:05.260Z,49.30
2022-11-07T17:34:08.856Z,46.63
2022-11-07T17:37:15.711Z,51.63
2022-11-07T17:40:26.759Z,49.63
2022-11-07T17:43:29.894Z,53.30
2022-11-07T17:46:34.656Z,57.97
2022-11-07T17:49:37.704Z,53.27
2022-11-07T17:52:41.876Z,49.85
2022-11-07T17:55:45.044Z,55.33
2022-11-07T17:58:52.631Z,75.40
2022-11-07T18:01:55.441Z,56.20
2022-11-07T18:04:58.406Z,61.87
2022-11-07T18:08:01.750Z,64.30
2022-11-07T18:11:04.951Z,68.43
2022-11-07T18:14:08.256Z,71.10
2022-11-07T18:17:11.430Z,77.73
2022-11-07T18:20:17.390Z,67.33
2022-11-07T18:23:20.505Z,71.15
2022-11-07T18:26:32.992Z,71.18
2022-11-07T18:29:36.782Z,73.45
2022-11-07T18:32:39.998Z,67.83
2022-11-07T18:35:43.059Z,68.53
2022-11-07T18:38:47.728Z,59.33
2022-11-07T18:41:54.599Z,53.33
2022-11-07T18:44:57.782Z,56.78
2022-11-07T18:48:02.049Z,53.73
2022-11-07T18:51:10.095Z,53.30
2022-11-07T18:54:14.354Z,57.08
2022-11-07T18:57:17.475Z,52.92
2022-11-07T19:00:20.793Z,50.90
2022-11-07T19:03:23.510Z,52.93
2022-11-07T19:06:33.241Z,52.03
2022-11-07T19:09:37.530Z,55.28
2022-11-07T19:12:41.222Z,51.28
2022-11-07T19:15:45.576Z,58.22
2022-11-07T19:18:50.395Z,57.63
2022-11-07T19:21:53.122Z,47.17
2022-11-07T19:24:56.117Z,49.40
2022-11-07T19:27:59.495Z,47.90
2022-11-07T19:31:04.362Z,41.15
2022-11-07T19:34:08.766Z,42.97
2022-11-07T19:37:12.520Z,52.20
2022-11-07T19:40:15.706Z,47.25
2022-11-07T19:43:19.797Z,46.13
2022-11-07T19:46:24.054Z,39.83
2022-11-07T19:49:26.745Z,45.30
2022-11-07T19:52:29.830Z,48.93
2022-11-07T19:55:33.750Z,49.88
2022-11-07T19:58:40.981Z,46.08
2022-11-07T20:02:04.134Z,52.75
2022-11-07T20:05:09.900Z,60.60
2022-11-07T20:08:14.230Z,59.60
2022-11-07T20:11:23.153Z,68.30
2022-11-07T20:14:28.668Z,60.12
2022-11-07T20:17:32.547Z,74.03
2022-11-07T20:20:35.190Z,60.90
2022-11-07T20:23:37.900Z,53.23
2022-11-07T20:26:45.238Z,52.05
2022-11-07T20:29:49.850Z,49.95
2022-11-07T20:32:53.020Z,61.78
2022-11-07T20:36:05.014Z,58.20
2022-11-07T20:39:08.847Z,55.33
2022-11-07T20:42:11.953Z,50.85
2022-11-07T20:45:14.814Z,56.15
2022-11-07T20:48:18.862Z,59.63
2022-11-07T20:51:26.206Z,47.80
2022-11-07T20:54:30.362Z,47.63
2022-11-07T20:57:34.609Z,47.95
2022-11-07T21:00:40.459Z,45.45
2022-11-07T21:03:43.579Z,47.15
2022-11-07T21:06:46.830Z,42.03
2022-11-07T21:09:49.977Z,40.57
2022-11-07T21:12:52.825Z,51.45
2022-11-07T21:15:55.821Z,58.25
2022-11-07T21:18:58.539Z,55.22
2022-11-07T21:22:01.123Z,52.93
2022-11-07T21:25:07.217Z,54.10
2022-11-07T21:28:13.153Z,55.80
2022-11-07T21:31:20.097Z,52.62
2022-11-07T21:34:22.079Z,53.47
2022-11-07T21:37:24.287Z,47.93
2022-11-07T21:40:27.231Z,48.80
2022-11-07T21:43:29.291Z,46.90
2022-11-07T21:46:34.417Z,47.35
2022-11-07T21:49:36.375Z,46.85
2022-11-07T21:52:38.330Z,43.77
2022-11-07T21:55:40.343Z,44.53
2022-11-07T21:58:42.831Z,42.80
2022-11-07T22:01:46.552Z,43.50
2022-11-07T22:04:48.607Z,42.10
2022-11-07T22:07:51.383Z,41.83
2022-11-07T22:10:53.544Z,36.03
2022-11-07T22:13:56.092Z,40.05
2022-11-07T22:16:58.057Z,37.67
2022-11-07T22:20:00.264Z,36.50
2022-11-07T22:23:02.242Z,39.23
2022-11-07T22:26:15.221Z,39.03
2022-11-07T22:29:17.143Z,44.45
2022-11-07T22:32:19.203Z,39.03
2022-11-07T22:35:21.230Z,42.78
2022-11-07T22:38:23.910Z,29.87
2022-11-07T22:41:27.606Z,31.50
2022-11-07T22:44:29.599Z,32.92
2022-11-07T22:47:31.605Z,34.85
2022-11-07T22:50:34.428Z,29.48
2022-11-07T22:53:38.208Z,31.73
2022-11-07T22:56:41.150Z,35.27
2022-11-07T22:59:43.139Z,34.08
2022-11-07T23:02:45.207Z,32.50
2022-11-07T23:05:47.208Z,33.20
2022-11-07T23:08:49.505Z,33.83
2022-11-07T23:11:51.529Z,33.50
2022-11-07T23:14:56.854Z,35.63
2022-11-07T23:17:59.091Z,33.72
2022-11-07T23:21:10.453Z,32.63
2022-11-07T23:24:12.800Z,35.43
2022-11-07T23:27:15.964Z,29.73
2022-11-07T23:30:20.359Z,32.92
2022-11-07T23:33:23.199Z,32.00
2022-11-07T23:36:26.138Z,32.10
2022-11-07T23:39:30.100Z,34.40
2022-11-07T23:42:32.806Z,33.33
2022-11-07T23:45:53.812Z,33.88
2022-11-07T23:49:15.011Z,34.00
2022-11-07T23:52:18.546Z,33.55
2022-11-07T23:55:39.992Z,30.67
2022-11-07T23:59:21.143Z,33.53
